| Temperature (°F) | Max | Average | Min |
|---|---|---|---|
| Max Temperature | 87 | 78.83 | 58 |
| Avg Temperature | 75.71 | 67.01 | 46.29 |
| Min Temperature | 69 | 56.27 | 36 |
| Dew Point (°F) | Max | Average | Min |
|---|---|---|---|
| Dew Point | 74 | 55.83 | 18 |
| Precipitation (in) | Max | Average | Min | Sum |
|---|---|---|---|---|
| Precipitation | 0.07 | 0.00 | 0.00 | 0.07 |
| Snowdepth | 0.00 | 0.00 | 0.00 | 0.00 |
| Wind (mph) | Max | Average | Min |
|---|---|---|---|
| Wind | 22 | 5.74 | 0 |
| Gust Wind | 35 | 1.06 | 0 |
| Sea Level Pressure (in) | Max | Average | Min |
|---|---|---|---|
| Sea Level Pressure | 30.28 | 30.01 | 29.74 |
| Date | Temperature (°F) | Dew Point (°F) | Humidity (%) | Wind Speed (mph) | Pressure (in) | Precipitation (in) | ||||||||||
|---|---|---|---|---|---|---|---|---|---|---|---|---|---|---|---|---|
| Max | Avg | Min | Max | Avg | Min | Max | Avg | Min | Max | Avg | Min | Max | Avg | Min | ||
| 11/30/2025 | 80 | 68.8 | 62 | 64 | 58.7 | 54 | 93 | 72.8 | 42 | 10 | 5.5 | 0 | 30.1 | 30.0 | 30.0 | 0.00 |
| 11/29/2025 | 82 | 62.7 | 57 | 56 | 50.9 | 41 | 86 | 66.1 | 51 | 17 | 10.9 | 5 | 30.2 | 30.1 | 30.1 | 0.00 |
| 11/28/2025 | 74 | 54.6 | 50 | 42 | 34.4 | 23 | 68 | 47.6 | 34 | 16 | 13.4 | 10 | 30.2 | 30.1 | 30.1 | 0.00 |
| 11/27/2025 | 65 | 66.3 | 47 | 69 | 58.1 | 31 | 97 | 76.8 | 39 | 17 | 7.7 | 0 | 30.1 | 30.0 | 29.9 | 0.00 |
| 11/26/2025 | 75 | 72.9 | 53 | 67 | 63.6 | 60 | 100 | 75.5 | 46 | 12 | 4.1 | 0 | 30.0 | 30.0 | 29.9 | 0.00 |
| 11/25/2025 | 85 | 72.4 | 61 | 67 | 64.3 | 60 | 100 | 78.2 | 44 | 10 | 4.8 | 0 | 30.1 | 30.0 | 30.0 | 0.00 |
| 11/24/2025 | 84 | 72.4 | 62 | 68 | 64.2 | 61 | 100 | 78.1 | 45 | 13 | 4.9 | 0 | 30.1 | 30.0 | 30.0 | 0.00 |
| 11/23/2025 | 84 | 71.2 | 66 | 68 | 64.3 | 61 | 100 | 80.6 | 61 | 9 | 3.5 | 0 | 30.0 | 30.0 | 29.9 | 0.00 |
| 11/22/2025 | 82 | 69.7 | 59 | 66 | 60.3 | 55 | 100 | 76.2 | 39 | 8 | 2.6 | 0 | 30.0 | 30.0 | 29.9 | 0.00 |
| 11/21/2025 | 82 | 70.6 | 59 | 64 | 61.4 | 57 | 94 | 75.1 | 48 | 7 | 1.8 | 0 | 30.1 | 30.0 | 30.0 | 0.00 |
| 11/20/2025 | 83 | 70.5 | 58 | 61 | 58.3 | 55 | 97 | 68.9 | 39 | 8 | 3.0 | 0 | 30.1 | 30.0 | 30.0 | 0.00 |
| 11/19/2025 | 83 | 70.0 | 58 | 61 | 57.7 | 55 | 93 | 67.5 | 42 | 6 | 1.9 | 0 | 30.1 | 30.1 | 30.0 | 0.00 |
| 11/18/2025 | 83 | 69.3 | 59 | 64 | 55.7 | 52 | 97 | 66.0 | 36 | 7 | 3.0 | 0 | 30.1 | 30.0 | 30.0 | 0.00 |
| 11/17/2025 | 81 | 68.0 | 57 | 65 | 59.1 | 52 | 100 | 75.6 | 48 | 8 | 4.7 | 0 | 30.0 | 29.9 | 29.8 | 0.00 |
| 11/16/2025 | 81 | 66.5 | 59 | 60 | 55.3 | 52 | 93 | 69.9 | 42 | 16 | 6.1 | 0 | 29.9 | 29.8 | 29.7 | 0.00 |
| 11/15/2025 | 79 | 66.9 | 53 | 57 | 53.8 | 45 | 93 | 66.8 | 31 | 9 | 3.5 | 0 | 30.0 | 30.0 | 29.9 | 0.00 |
| 11/14/2025 | 79 | 63.9 | 55 | 56 | 52.4 | 48 | 97 | 70.2 | 37 | 13 | 4.5 | 0 | 30.1 | 30.0 | 30.0 | 0.00 |
| 11/13/2025 | 78 | 60.9 | 52 | 53 | 48.4 | 42 | 96 | 67.0 | 39 | 10 | 4.3 | 0 | 30.2 | 30.1 | 30.0 | 0.00 |
| 11/12/2025 | 75 | 54.5 | 45 | 44 | 37.8 | 33 | 79 | 55.9 | 32 | 8 | 4.0 | 0 | 30.3 | 30.2 | 30.1 | 0.00 |
| 11/11/2025 | 69 | 46.3 | 42 | 34 | 23.4 | 18 | 68 | 42.8 | 23 | 22 | 12.1 | 0 | 30.3 | 30.2 | 30.2 | 0.00 |
| 11/10/2025 | 58 | 62.4 | 36 | 70 | 48.1 | 21 | 97 | 63.5 | 30 | 22 | 13.3 | 6 | 30.2 | 30.0 | 29.8 | 0.07 |
| 11/9/2025 | 72 | 74.0 | 48 | 74 | 71.4 | 68 | 100 | 92.0 | 69 | 12 | 5.1 | 0 | 29.9 | 29.9 | 29.8 | 0.00 |
| 11/8/2025 | 84 | 75.7 | 69 | 68 | 65.8 | 63 | 100 | 74.0 | 46 | 8 | 3.5 | 0 | 29.9 | 29.8 | 29.8 | 0.00 |
| 11/7/2025 | 87 | 74.0 | 65 | 68 | 64.7 | 60 | 97 | 74.6 | 46 | 7 | 3.7 | 0 | 29.9 | 29.9 | 29.8 | 0.00 |
| 11/6/2025 | 85 | 69.5 | 65 | 64 | 61.5 | 60 | 97 | 77.1 | 58 | 9 | 5.0 | 0 | 30.1 | 30.0 | 29.9 | 0.00 |
| 11/5/2025 | 76 | 70.9 | 61 | 63 | 60.6 | 58 | 100 | 72.6 | 47 | 10 | 6.3 | 0 | 30.2 | 30.1 | 30.0 | 0.00 |
| 11/4/2025 | 82 | 66.6 | 61 | 61 | 56.1 | 50 | 90 | 70.7 | 48 | 16 | 8.7 | 6 | 30.2 | 30.1 | 30.1 | 0.00 |
| 11/3/2025 | 80 | 67.0 | 55 | 62 | 54.5 | 51 | 93 | 66.4 | 43 | 15 | 9.4 | 3 | 30.1 | 30.0 | 29.9 | 0.00 |
| 11/2/2025 | 77 | 68.8 | 57 | 63 | 58.5 | 55 | 93 | 71.7 | 48 | 10 | 5.3 | 0 | 30.0 | 30.0 | 29.9 | 0.00 |
| 11/1/2025 | 80 | 63.0 | 57 | 56 | 51.6 | 49 | 93 | 69.2 | 45 | 9 | 5.8 | 3 | 30.0 | 30.0 | 29.9 | 0.00 |